createdAt,value
2023-05-01T15:10:48.165Z,19.47
2023-05-01T15:13:14.761Z,19.45
2023-05-01T15:15:41.583Z,19.48
2023-05-01T15:18:11.445Z,19.45
2023-05-01T15:20:39.230Z,19.37
2023-05-01T15:23:05.785Z,19.24
2023-05-01T15:25:32.358Z,19.13
2023-05-01T15:27:58.957Z,19.04
2023-05-01T15:30:25.701Z,18.87
2023-05-01T15:32:55.378Z,18.68
2023-05-01T15:35:23.634Z,18.53
2023-05-01T15:37:50.726Z,18.38
2023-05-01T15:40:17.465Z,18.21
2023-05-01T15:42:45.528Z,18.04
2023-05-01T15:45:12.122Z,17.94
2023-05-01T15:47:38.781Z,17.85
2023-05-01T15:50:09.552Z,17.72
2023-05-01T15:52:36.147Z,17.61
2023-05-01T15:55:02.795Z,17.52
2023-05-01T15:57:32.544Z,17.45
2023-05-01T15:59:59.248Z,17.42
2023-05-01T16:02:29.262Z,17.43
2023-05-01T16:04:55.938Z,17.43
2023-05-01T16:07:22.531Z,17.37
2023-05-01T16:09:49.327Z,17.28
2023-05-01T16:12:16.069Z,17.22
2023-05-01T16:14:42.689Z,17.23
2023-05-01T16:17:09.638Z,17.23
2023-05-01T16:19:39.118Z,17.24
2023-05-01T16:22:07.358Z,17.21
2023-05-01T16:24:36.150Z,17.20
2023-05-01T16:27:03.132Z,17.21
2023-05-01T16:29:33.410Z,17.21
2023-05-01T16:32:00.216Z,17.20
2023-05-01T16:34:27.599Z,17.14
2023-05-01T16:36:56.147Z,17.09
2023-05-01T16:39:23.222Z,17.05
2023-05-01T16:41:52.373Z,17.01
2023-05-01T16:44:21.265Z,16.96
2023-05-01T16:46:58.605Z,16.84
2023-05-01T16:49:29.894Z,16.68
2023-05-01T16:51:58.290Z,16.52
2023-05-01T16:54:35.293Z,16.36
2023-05-01T16:57:03.299Z,16.23
2023-05-01T16:59:30.634Z,16.11
2023-05-01T17:01:57.574Z,15.98
2023-05-01T17:04:25.224Z,15.86
2023-05-01T17:06:52.280Z,15.75
2023-05-01T17:09:19.163Z,15.64
2023-05-01T17:11:56.755Z,15.53
2023-05-01T17:14:23.913Z,15.40
2023-05-01T17:16:50.998Z,15.28
2023-05-01T17:19:17.737Z,15.15
2023-05-01T17:21:44.355Z,15.03
2023-05-01T17:24:12.964Z,14.93
2023-05-01T17:26:39.655Z,14.83
2023-05-01T17:29:06.217Z,14.72
2023-05-01T17:31:32.935Z,14.62
2023-05-01T17:33:59.813Z,14.51
2023-05-01T17:36:27.170Z,14.40
2023-05-01T17:38:54.649Z,14.30
2023-05-01T17:41:24.298Z,14.19
2023-05-01T17:43:50.919Z,14.09
2023-05-01T17:46:18.429Z,13.98
2023-05-01T17:48:45.136Z,13.87
2023-05-01T17:51:14.116Z,13.77
2023-05-01T17:53:41.690Z,13.66
2023-05-01T17:56:09.118Z,13.55
2023-05-01T17:58:35.833Z,13.44
2023-05-01T18:01:04.648Z,13.32
2023-05-01T18:03:32.954Z,13.20
2023-05-01T18:06:01.664Z,13.06
2023-05-01T18:08:28.402Z,12.93
2023-05-01T18:10:55.305Z,12.83
2023-05-01T18:13:27.854Z,12.73
2023-05-01T18:15:57.769Z,12.65
2023-05-01T18:18:24.714Z,12.56
2023-05-01T18:20:51.833Z,12.47
2023-05-01T18:23:18.885Z,12.38
2023-05-01T18:25:46.482Z,12.26
2023-05-01T18:28:13.557Z,12.16
2023-05-01T18:30:40.150Z,12.06
2023-05-01T18:33:06.913Z,11.97
2023-05-01T18:35:33.668Z,11.86
2023-05-01T18:38:00.298Z,11.76
2023-05-01T18:40:27.437Z,11.66
2023-05-01T18:42:54.166Z,11.56
2023-05-01T18:45:20.903Z,11.44
2023-05-01T18:47:48.148Z,11.33
2023-05-01T18:50:16.981Z,11.21
2023-05-01T18:52:43.921Z,11.07
2023-05-01T18:55:11.637Z,10.93
2023-05-01T18:57:38.277Z,10.82
2023-05-01T19:00:06.549Z,10.71
2023-05-01T19:02:33.403Z,10.63
2023-05-01T19:05:00.159Z,10.55
2023-05-01T19:07:26.898Z,10.48
2023-05-01T19:09:53.664Z,10.43
2023-05-01T19:12:20.292Z,10.41
2023-05-01T19:14:47.096Z,10.37
2023-05-01T19:17:13.826Z,10.33
2023-05-01T19:19:40.448Z,10.29
2023-05-01T19:22:07.461Z,10.24
2023-05-01T19:24:34.201Z,10.21
2023-05-01T19:27:03.585Z,10.21
2023-05-01T19:29:31.947Z,10.20
2023-05-01T19:32:00.425Z,10.17
2023-05-01T19:34:27.884Z,10.14
2023-05-01T19:36:57.102Z,10.11
2023-05-01T19:39:24.224Z,10.07
2023-05-01T19:41:51.005Z,10.01
2023-05-01T19:44:18.028Z,9.94
2023-05-01T19:46:45.047Z,9.84
2023-05-01T19:49:12.071Z,9.76
2023-05-01T19:51:38.739Z,9.68
2023-05-01T19:54:05.356Z,9.64
2023-05-01T19:56:31.971Z,9.64
2023-05-01T19:59:01.333Z,9.65
2023-05-01T20:01:31.345Z,9.66
2023-05-01T20:03:58.291Z,9.68
2023-05-01T20:06:24.978Z,9.67
2023-05-01T20:08:52.046Z,9.64
2023-05-01T20:11:18.794Z,9.60
2023-05-01T20:13:46.048Z,9.55
2023-05-01T20:16:13.037Z,9.49
2023-05-01T20:18:39.695Z,9.42
2023-05-01T20:21:07.723Z,9.36
2023-05-01T20:23:34.888Z,9.30
2023-05-01T20:26:01.844Z,9.28
2023-05-01T20:28:28.626Z,9.30
2023-05-01T20:30:56.306Z,9.31
2023-05-01T20:33:23.173Z,9.33
2023-05-01T20:35:51.469Z,9.35
2023-05-01T20:38:18.334Z,9.40
2023-05-01T20:40:45.366Z,9.43
2023-05-01T20:43:13.058Z,9.46
2023-05-01T20:45:39.697Z,9.47
2023-05-01T20:48:06.735Z,9.48
2023-05-01T20:50:34.908Z,9.48
2023-05-01T20:53:01.796Z,9.48
2023-05-01T20:55:30.051Z,9.47
2023-05-01T20:57:56.795Z,9.45
2023-05-01T21:00:23.575Z,9.44
2023-05-01T21:02:51.750Z,9.41
2023-05-01T21:05:18.655Z,9.40
2023-05-01T21:07:45.365Z,9.39
2023-05-01T21:10:14.317Z,9.40
2023-05-01T21:12:41.073Z,9.39
2023-05-01T21:15:09.347Z,9.36
2023-05-01T21:17:37.105Z,9.32
2023-05-01T21:20:08.551Z,9.27
2023-05-01T21:22:35.826Z,9.23
2023-05-01T21:25:02.650Z,9.19
2023-05-01T21:27:29.392Z,9.16
2023-05-01T21:29:59.263Z,9.13
2023-05-01T21:32:32.619Z,9.09
2023-05-01T21:35:00.522Z,9.05
2023-05-01T21:37:30.087Z,8.98
2023-05-01T21:40:01.361Z,8.93
2023-05-01T21:42:35.764Z,8.88
2023-05-01T21:45:07.647Z,8.83
2023-05-01T21:47:38.638Z,8.77
2023-05-01T21:50:07.188Z,8.68
2023-05-01T21:52:34.966Z,8.58
2023-05-01T21:55:03.790Z,8.52
2023-05-01T21:57:31.769Z,8.45
2023-05-01T22:00:01.642Z,8.39
2023-05-01T22:02:35.224Z,8.35
2023-05-01T22:05:01.981Z,8.29
2023-05-01T22:07:28.535Z,8.25
2023-05-01T22:09:59.074Z,8.18
2023-05-01T22:12:26.099Z,8.10
2023-05-01T22:14:53.130Z,8.02
2023-05-01T22:17:24.359Z,7.95
2023-05-01T22:19:51.789Z,7.88
2023-05-01T22:22:19.452Z,7.82
2023-05-01T22:24:46.505Z,7.80
2023-05-01T22:27:13.229Z,7.79
2023-05-01T22:29:39.807Z,7.80
2023-05-01T22:32:06.434Z,7.81
2023-05-01T22:34:33.391Z,7.80
2023-05-01T22:36:59.979Z,7.82
2023-05-01T22:39:26.516Z,7.85
2023-05-01T22:41:53.148Z,7.87
2023-05-01T22:44:22.334Z,7.89
2023-05-01T22:46:49.122Z,7.94
2023-05-01T22:49:15.704Z,7.99
2023-05-01T22:51:42.246Z,8.03
2023-05-01T22:54:08.932Z,8.06
2023-05-01T22:56:35.637Z,8.08
2023-05-01T22:59:02.284Z,8.11
2023-05-01T23:01:29.421Z,8.14
2023-05-01T23:03:56.645Z,8.13
2023-05-01T23:06:23.536Z,8.12
2023-05-01T23:08:56.179Z,8.11
2023-05-01T23:11:22.855Z,8.09
2023-05-01T23:13:50.083Z,8.05
2023-05-01T23:16:17.651Z,8.01
2023-05-01T23:18:45.594Z,7.96
2023-05-01T23:21:18.187Z,7.92
2023-05-01T23:23:46.586Z,7.86
2023-05-01T23:26:27.004Z,7.81
2023-05-01T23:28:53.893Z,7.77
2023-05-01T23:31:27.828Z,7.75
2023-05-01T23:33:55.457Z,7.71
2023-05-01T23:36:22.154Z,7.69
2023-05-01T23:38:48.853Z,7.69
2023-05-01T23:41:16.567Z,7.71
2023-05-01T23:43:46.586Z,7.73
2023-05-01T23:46:13.926Z,7.75
2023-05-01T23:48:41.547Z,7.76
2023-05-01T23:51:08.383Z,7.78
2023-05-01T23:53:35.008Z,7.80
2023-05-01T23:56:02.198Z,7.81
2023-05-01T23:58:28.806Z,7.81
